Time;durP1;ratioP1;P1;durP2;ratioP2;P2;SDS_P1;SDS_P2;PMS_P1;PMS_P2;Temp;Humidity;BMP_temperature;BMP_pressure;BME280_temperature;BME280_humidity;BME280_pressure;Samples;Min_cycle;Max_cycle;Signal;HPM_P1;HPM_P2
2023/10/05 00:01:21;;;;;;;19.40;7.20;;;13.70;99.90;;;;;;5029660;28;20192;-74
2023/10/05 00:03:50;;;;;;;8.13;2.47;;;13.40;99.90;;;;;;5034647;28;20260;-74
2023/10/05 00:06:17;;;;;;;12.32;2.72;;;13.30;99.90;;;;;;5035017;28;20214;-74
2023/10/05 00:08:49;;;;;;;9.93;2.80;;;13.70;99.90;;;;;;5034862;28;20184;-74
2023/10/05 00:11:29;;;;;;;7.70;1.77;;;13.60;99.90;;;;;;5037436;28;20187;-74
2023/10/05 00:13:58;;;;;;;8.02;1.10;;;13.50;99.90;;;;;;5034917;28;20178;-74
2023/10/05 00:16:36;;;;;;;8.18;1.30;;;13.60;99.90;;;;;;5034964;28;20169;-74
2023/10/05 00:19:10;;;;;;;8.77;1.20;;;13.70;99.90;;;;;;5034954;28;20173;-74
2023/10/05 00:21:36;;;;;;;3.53;1.15;;;13.60;99.90;;;;;;5034725;28;20181;-74
2023/10/05 00:24:06;;;;;;;6.32;1.52;;;13.60;99.90;;;;;;5034787;28;20172;-74
2023/10/05 00:26:35;;;;;;;8.18;1.10;;;13.50;99.90;;;;;;5034670;28;20213;-74
2023/10/05 00:31:30;;;;;;;7.75;1.25;;;13.90;99.90;;;;;;5034702;28;20185;-75
2023/10/05 00:33:57;;;;;;;7.75;1.48;;;;;;;;;;5034437;28;20185;-75
2023/10/05 00:36:32;;;;;;;4.18;1.25;;;13.70;99.90;;;;;;5034416;28;20189;-75
2023/10/05 00:39:01;;;;;;;14.13;1.50;;;13.40;99.90;;;;;;5035007;28;20216;-75
2023/10/05 00:41:28;;;;;;;6.13;1.33;;;13.50;99.90;;;;;;5034654;28;20170;-75
2023/10/05 00:43:54;;;;;;;4.82;1.13;;;13.70;99.90;;;;;;5033971;28;20215;-75
2023/10/05 00:46:21;;;;;;;7.90;1.67;;;;;;;;;;5034344;28;20229;-75
2023/10/05 00:51:34;;;;;;;4.80;0.90;;;13.60;99.90;;;;;;5034368;28;20181;-74
2023/10/05 00:54:05;;;;;;;7.75;1.20;;;13.80;99.90;;;;;;5034066;28;20228;-74
2023/10/05 00:56:34;;;;;;;2.78;1.10;;;13.70;99.90;;;;;;5034135;28;20620;-74
2023/10/05 00:59:06;;;;;;;13.20;2.25;;;13.80;99.90;;;;;;5033856;28;20223;-75
2023/10/05 01:02:16;;;;;;;10.02;1.40;;;13.60;99.90;;;;;;5034181;28;20177;-74
2023/10/05 01:04:29;;;;;;;5.10;1.75;;;13.70;99.90;;;;;;5030773;28;20185;-75
2023/10/05 01:06:57;;;;;;;7.57;1.25;;;13.70;99.90;;;;;;5033832;28;20202;-74
2023/10/05 01:09:39;;;;;;;8.80;1.80;;;13.90;99.90;;;;;;5032750;28;20546;-74
2023/10/05 01:14:38;;;;;;;7.93;1.40;;;13.70;99.90;;;;;;5033184;28;20181;-74
2023/10/05 01:17:05;;;;;;;9.05;1.25;;;;;;;;;;5033590;28;20265;-74
2023/10/05 01:19:31;;;;;;;8.80;1.35;;;13.60;99.90;;;;;;5033617;28;20257;-75
2023/10/05 01:21:57;;;;;;;6.28;1.30;;;13.60;99.90;;;;;;5033607;28;20684;-74
2023/10/05 01:24:25;;;;;;;10.05;1.52;;;13.90;99.90;;;;;;5032211;28;20260;-75
2023/10/05 01:26:50;;;;;;;12.25;1.52;;;13.70;99.90;;;;;;5032127;28;20285;-74
2023/10/05 01:29:16;;;;;;;7.57;1.30;;;13.70;99.90;;;;;;5033447;28;20209;-74
2023/10/05 01:31:42;;;;;;;3.90;1.17;;;13.80;99.90;;;;;;5033399;28;20328;-75
2023/10/05 01:34:08;;;;;;;8.35;1.27;;;13.80;99.90;;;;;;5032244;28;20185;-74
2023/10/05 01:36:34;;;;;;;6.95;1.20;;;13.70;99.90;;;;;;5033272;28;20178;-75
2023/10/05 01:39:08;;;;;;;7.68;1.30;;;13.70;99.90;;;;;;5033326;28;20162;-74
2023/10/05 01:41:33;;;;;;;9.40;1.38;;;13.80;99.90;;;;;;5033251;28;20166;-74
2023/10/05 01:44:00;;;;;;;4.03;1.20;;;13.60;99.90;;;;;;5033155;28;20174;-74
2023/10/05 01:46:26;;;;;;;7.53;1.33;;;14.00;99.90;;;;;;5032884;28;20228;-74
2023/10/05 01:48:52;;;;;;;11.35;1.60;;;;;;;;;;5033137;28;20162;-75
2023/10/05 01:51:25;;;;;;;6.65;1.00;;;13.80;99.90;;;;;;5033174;28;20172;-74
2023/10/05 01:54:11;;;;;;;5.63;1.13;;;13.90;99.90;;;;;;5033153;28;20178;-74
2023/10/05 01:56:39;;;;;;;6.78;1.42;;;13.90;99.90;;;;;;5033071;28;20188;-76
2023/10/05 01:59:06;;;;;;;3.83;1.23;;;13.70;99.90;;;;;;5032833;28;20178;-75
2023/10/05 02:01:36;;;;;;;5.32;1.52;;;13.70;99.90;;;;;;5032848;28;20648;-74
2023/10/05 02:04:02;;;;;;;8.70;1.27;;;13.70;99.90;;;;;;5032797;28;20212;-74
2023/10/05 02:06:28;;;;;;;8.60;1.40;;;13.90;99.90;;;;;;5032807;28;20210;-74
2023/10/05 02:08:54;;;;;;;6.68;1.50;;;13.70;99.90;;;;;;5032788;28;20236;-74
2023/10/05 02:11:24;;;;;;;5.73;1.10;;;13.80;99.90;;;;;;5032037;28;20730;-75
2023/10/05 02:13:51;;;;;;;11.75;1.73;;;13.50;99.90;;;;;;5036047;28;20574;-74
2023/10/05 02:16:21;;;;;;;9.35;1.35;;;13.70;99.90;;;;;;5032558;28;20261;-75
2023/10/05 02:18:50;;;;;;;9.98;2.03;;;13.80;99.90;;;;;;5032693;28;20266;-75
2023/10/05 02:24:10;;;;;;;10.70;1.33;;;13.90;99.90;;;;;;5032743;28;20698;-75
2023/10/05 02:26:40;;;;;;;7.57;1.48;;;13.70;99.90;;;;;;5029957;28;20330;-75
2023/10/05 02:29:13;;;;;;;6.53;1.38;;;13.70;99.90;;;;;;5032145;28;20174;-74
2023/10/05 02:31:54;;;;;;;8.67;1.30;;;13.90;99.90;;;;;;5032533;28;20220;-74
2023/10/05 02:34:20;;;;;;;10.90;1.90;;;13.80;99.90;;;;;;5032221;28;20166;-74
2023/10/05 02:36:46;;;;;;;9.20;1.48;;;;;;;;;;5030855;28;20177;-74
2023/10/05 02:39:14;;;;;;;10.02;1.38;;;13.80;99.90;;;;;;5030689;28;20950;-75
2023/10/05 02:41:39;;;;;;;13.93;2.35;;;13.90;99.90;;;;;;5032185;28;20324;-74
2023/10/05 02:44:18;;;;;;;9.60;1.52;;;13.80;99.90;;;;;;5032064;28;20648;-74
2023/10/05 02:46:47;;;;;;;6.07;1.40;;;13.80;99.90;;;;;;5031952;28;20283;-74
2023/10/05 02:49:16;;;;;;;5.97;1.40;;;13.70;99.90;;;;;;5031932;28;20166;-74
2023/10/05 02:51:43;;;;;;;6.18;1.30;;;13.80;99.90;;;;;;5033952;28;20307;-74
2023/10/05 02:54:10;;;;;;;5.95;1.27;;;13.60;99.90;;;;;;5040310;28;20189;-74
2023/10/05 02:56:39;;;;;;;8.68;1.38;;;13.60;99.90;;;;;;5051636;28;20632;-74
2023/10/05 02:59:09;;;;;;;11.00;1.50;;;13.80;99.90;;;;;;5035727;28;20663;-74
2023/10/05 03:01:37;;;;;;;6.80;1.58;;;13.40;99.90;;;;;;5031586;28;20185;-74
2023/10/05 03:04:04;;;;;;;11.95;1.27;;;13.80;99.90;;;;;;5031414;28;20197;-74
2023/10/05 03:06:30;;;;;;;5.50;1.47;;;;;;;;;;5031467;28;20205;-74
2023/10/05 03:09:06;;;;;;;6.47;1.40;;;13.70;99.90;;;;;;5030146;28;20223;-73
2023/10/05 03:11:39;;;;;;;5.57;1.38;;;13.80;99.90;;;;;;5049011;28;20813;-74
2023/10/05 03:14:07;;;;;;;8.50;1.60;;;13.90;99.90;;;;;;5051378;28;20244;-74
2023/10/05 03:16:42;;;;;;;7.30;1.42;;;13.70;99.90;;;;;;5051255;28;20173;-74
2023/10/05 03:19:11;;;;;;;7.40;1.50;;;13.80;99.90;;;;;;5051271;28;20161;-74
2023/10/05 03:21:37;;;;;;;7.68;1.48;;;13.80;99.90;;;;;;5051276;28;20178;-75
2023/10/05 03:24:03;;;;;;;6.47;1.50;;;13.90;99.90;;;;;;5051342;28;20173;-74
2023/10/05 03:26:29;;;;;;;8.05;1.30;;;14.00;99.90;;;;;;5051195;28;20307;-74
2023/10/05 03:28:54;;;;;;;9.68;1.38;;;13.80;99.90;;;;;;5050970;28;20252;-74
2023/10/05 03:31:37;;;;;;;10.40;1.80;;;13.90;99.90;;;;;;5051177;28;20173;-74
2023/10/05 03:34:07;;;;;;;8.55;1.33;;;13.90;99.90;;;;;;5051159;28;20168;-73
2023/10/05 03:36:33;;;;;;;9.27;1.67;;;13.90;99.90;;;;;;5049529;28;20169;-74
2023/10/05 03:39:03;;;;;;;8.50;1.48;;;13.90;99.90;;;;;;5051151;28;20167;-74
2023/10/05 03:41:29;;;;;;;6.47;1.30;;;13.80;99.90;;;;;;5051237;28;20180;-73
2023/10/05 03:43:55;;;;;;;9.35;1.40;;;13.70;99.90;;;;;;5050944;28;20166;-73
2023/10/05 03:46:24;;;;;;;3.78;1.42;;;13.80;99.90;;;;;;5050577;28;20233;-73
2023/10/05 03:49:06;;;;;;;8.80;1.25;;;14.00;99.90;;;;;;5051133;28;20250;-74
2023/10/05 03:51:32;;;;;;;7.88;1.77;;;;;;;;;;5050952;28;20196;-73
2023/10/05 03:53:58;;;;;;;7.32;1.60;;;13.60;99.90;;;;;;5049626;28;20177;-73
2023/10/05 03:56:26;;;;;;;9.40;1.45;;;13.00;99.90;;;;;;5050774;28;20173;-74
2023/10/05 03:58:52;;;;;;;5.75;1.13;;;;;;;;;;5051033;28;20203;-77
2023/10/05 04:01:19;;;;;;;9.15;1.60;;;13.80;99.90;;;;;;5050881;28;20165;-76
2023/10/05 04:03:49;;;;;;;8.65;1.70;;;13.70;99.90;;;;;;5050848;28;20260;-73
2023/10/05 04:06:18;;;;;;;7.30;1.30;;;13.40;99.90;;;;;;5050968;28;20274;-76
2023/10/05 04:08:59;;;;;;;6.88;1.05;;;13.70;99.90;;;;;;5050602;28;20173;-73
2023/10/05 04:11:28;;;;;;;4.10;1.20;;;13.70;99.90;;;;;;5050779;28;20165;-75
2023/10/05 04:13:55;;;;;;;5.78;1.10;;;13.70;99.90;;;;;;5049501;28;20268;-73
2023/10/05 04:16:26;;;;;;;9.18;1.17;;;13.80;99.90;;;;;;5050767;28;20234;-73
2023/10/05 04:18:53;;;;;;;7.40;1.33;;;13.90;99.90;;;;;;5050808;28;20204;-73
2023/10/05 04:21:19;;;;;;;8.38;1.20;;;13.90;99.90;;;;;;5049359;28;20220;-73
2023/10/05 04:23:49;;;;;;;7.82;1.17;;;13.80;99.90;;;;;;5050696;28;20201;-73
2023/10/05 04:26:19;;;;;;;9.63;1.50;;;14.00;99.90;;;;;;5050625;28;20201;-74
2023/10/05 04:28:57;;;;;;;8.00;1.33;;;13.90;99.90;;;;;;5050503;28;20215;-74
2023/10/05 04:31:27;;;;;;;5.72;0.90;;;13.90;99.90;;;;;;5050719;28;20178;-74
2023/10/05 04:33:55;;;;;;;5.90;1.30;;;13.80;99.90;;;;;;5049291;28;20265;-74
2023/10/05 04:36:24;;;;;;;10.23;1.52;;;13.80;99.90;;;;;;5050563;28;20682;-74
2023/10/05 04:38:54;;;;;;;8.40;1.52;;;13.80;99.90;;;;;;5050645;28;20205;-74
2023/10/05 04:41:31;;;;;;;5.38;1.63;;;13.90;99.90;;;;;;5050374;28;20223;-73
2023/10/05 04:43:57;;;;;;;7.93;1.47;;;13.60;99.90;;;;;;5050562;28;20161;-74
2023/10/05 04:46:24;;;;;;;10.15;2.00;;;13.70;99.90;;;;;;5050082;28;20221;-74
2023/10/05 04:48:56;;;;;;;10.27;1.40;;;;;;;;;;5050238;28;20177;-74
2023/10/05 04:51:28;;;;;;;10.05;1.58;;;13.50;99.90;;;;;;5054155;28;20200;-74
2023/10/05 04:53:58;;;;;;;5.70;1.30;;;13.60;99.90;;;;;;5054128;28;20208;-74
2023/10/05 04:56:40;;;;;;;10.15;1.92;;;13.60;99.90;;;;;;5053946;28;20186;-74
2023/10/05 05:07:06;;;;;;;6.82;1.33;;;13.50;99.90;;;;;;5053848;28;20223;-74
2023/10/05 05:09:34;;;;;;;6.03;1.40;;;;;;;;;;5053741;28;20177;-74
2023/10/05 05:12:03;;;;;;;7.13;1.40;;;13.50;99.90;;;;;;5053916;28;20232;-74
2023/10/05 05:14:33;;;;;;;7.45;1.40;;;13.50;99.90;;;;;;5053790;28;20242;-74
2023/10/05 05:17:05;;;;;;;8.88;1.73;;;13.30;99.90;;;;;;5052355;28;20178;-74
2023/10/05 05:19:37;;;;;;;7.68;1.40;;;13.40;99.90;;;;;;5053666;28;20192;-74
2023/10/05 05:22:05;;;;;;;10.13;1.40;;;13.40;99.90;;;;;;5053800;28;20166;-74
2023/10/05 05:24:34;;;;;;;5.63;1.10;;;13.50;99.90;;;;;;5053515;28;20554;-74
2023/10/05 05:27:33;;;;;;;4.35;1.50;;;13.40;99.90;;;;;;5053382;28;20209;-74
2023/10/05 05:29:52;;;;;;;6.95;1.23;;;;;;;;;;5051949;28;20189;-74
2023/10/05 05:32:19;;;;;;;4.80;1.25;;;13.60;99.90;;;;;;5053486;28;20169;-73
2023/10/05 05:34:46;;;;;;;7.38;1.10;;;13.50;99.90;;;;;;5044779;28;20239;-74
2023/10/05 05:37:28;;;;;;;9.02;1.35;;;13.20;99.90;;;;;;5047940;28;20207;-74
2023/10/05 05:40:12;;;;;;;7.07;1.10;;;13.60;99.90;;;;;;5048171;28;20628;-73
2023/10/05 05:42:37;;;;;;;9.35;2.10;;;13.40;99.90;;;;;;5033110;28;20174;-74
2023/10/05 05:45:08;;;;;;;14.43;1.95;;;13.40;99.90;;;;;;5033004;28;20318;-73
2023/10/05 05:47:34;;;;;;;8.63;1.70;;;13.40;99.90;;;;;;5032672;28;20210;-75
2023/10/05 05:50:01;;;;;;;4.18;1.02;;;13.40;99.90;;;;;;5032998;28;20180;-74
2023/10/05 05:52:27;;;;;;;7.65;1.42;;;13.10;99.90;;;;;;5039520;28;20254;-74
2023/10/05 05:54:52;;;;;;;8.98;1.27;;;13.30;99.90;;;;;;5052896;28;20170;-73
2023/10/05 05:57:19;;;;;;;11.60;1.60;;;13.30;99.90;;;;;;5053074;28;20169;-74
2023/10/05 05:59:45;;;;;;;5.18;1.77;;;13.20;99.90;;;;;;5050918;28;20185;-74
2023/10/05 06:02:11;;;;;;;9.23;1.52;;;;;;;;;;5052646;28;20165;-74
2023/10/05 06:04:41;;;;;;;12.25;1.30;;;13.60;99.90;;;;;;5052634;28;20211;-73
2023/10/05 06:07:13;;;;;;;8.48;1.33;;;13.60;99.90;;;;;;5051259;28;20213;-74
2023/10/05 06:09:45;;;;;;;8.70;1.65;;;13.50;99.90;;;;;;5052326;28;20265;-74
2023/10/05 06:12:15;;;;;;;6.45;2.00;;;13.50;99.90;;;;;;5052483;28;20177;-74
2023/10/05 06:14:41;;;;;;;8.98;2.15;;;13.40;99.90;;;;;;5052279;28;20188;-74
2023/10/05 06:17:08;;;;;;;7.72;1.80;;;13.30;99.90;;;;;;5052470;28;20177;-74
2023/10/05 06:19:36;;;;;;;6.82;1.42;;;13.50;99.90;;;;;;5052359;28;20166;-75
2023/10/05 06:22:07;;;;;;;8.25;1.50;;;13.70;99.90;;;;;;5052204;28;20241;-74
2023/10/05 06:24:41;;;;;;;8.13;1.25;;;13.60;99.90;;;;;;5052144;28;20256;-74
2023/10/05 06:27:06;;;;;;;10.00;1.50;;;13.60;99.90;;;;;;5052066;28;20204;-74
2023/10/05 06:29:33;;;;;;;9.52;1.30;;;13.50;99.90;;;;;;5040447;28;20181;-75
2023/10/05 06:32:00;;;;;;;8.00;1.48;;;13.40;99.90;;;;;;5032208;28;20182;-74
2023/10/05 06:34:26;;;;;;;7.93;1.48;;;13.80;99.90;;;;;;5031987;28;20192;-74
2023/10/05 06:36:52;;;;;;;7.35;1.30;;;13.70;99.90;;;;;;5031980;28;20174;-74
2023/10/05 06:39:18;;;;;;;7.15;1.75;;;13.80;99.90;;;;;;5031992;28;20170;-74
2023/10/05 06:41:45;;;;;;;9.50;1.57;;;13.30;99.90;;;;;;5032077;28;20229;-74
2023/10/05 06:44:11;;;;;;;7.07;1.50;;;13.60;99.90;;;;;;5031851;28;20641;-74
2023/10/05 06:46:40;;;;;;;9.52;1.80;;;13.70;99.90;;;;;;5031857;28;20306;-74
2023/10/05 06:49:06;;;;;;;15.75;1.73;;;13.80;99.90;;;;;;5031944;28;20166;-76
2023/10/05 06:51:32;;;;;;;9.18;1.80;;;13.60;99.90;;;;;;5031578;28;20174;-76
2023/10/05 06:53:58;;;;;;;7.93;1.50;;;;;;;;;;5032604;28;20166;-76
2023/10/05 06:56:25;;;;;;;7.55;1.65;;;13.70;99.90;;;;;;5031738;28;20170;-76
2023/10/05 06:58:50;;;;;;;4.60;1.42;;;13.90;99.90;;;;;;5031474;28;20180;-73
2023/10/05 07:01:20;;;;;;;10.10;1.38;;;13.90;99.90;;;;;;5031704;28;20181;-73
2023/10/05 07:03:55;;;;;;;10.48;1.67;;;13.90;99.90;;;;;;5031454;28;20228;-74
2023/10/05 07:06:29;;;;;;;10.40;1.77;;;13.90;99.90;;;;;;5031558;28;20197;-74
2023/10/05 07:08:55;;;;;;;11.25;1.60;;;13.80;99.90;;;;;;5031515;28;20166;-75
2023/10/05 07:11:22;;;;;;;7.10;1.38;;;14.00;99.90;;;;;;5031287;28;20169;-75
2023/10/05 07:13:48;;;;;;;11.27;1.75;;;13.90;99.90;;;;;;5031536;28;20253;-75
2023/10/05 07:16:15;;;;;;;14.50;2.17;;;14.20;99.90;;;;;;5031549;28;20249;-75
2023/10/05 07:18:40;;;;;;;14.40;1.90;;;14.00;99.90;;;;;;5030096;28;20173;-75
2023/10/05 07:21:08;;;;;;;12.18;1.85;;;14.00;99.90;;;;;;5031468;28;20185;-75
2023/10/05 07:23:37;;;;;;;5.97;1.33;;;13.50;99.90;;;;;;5031408;28;20698;-75
2023/10/05 07:26:04;;;;;;;20.70;1.80;;;13.90;99.90;;;;;;5031419;28;20221;-75
2023/10/05 07:28:32;;;;;;;8.82;1.85;;;13.90;99.90;;;;;;5031231;28;20223;-74
2023/10/05 07:30:59;;;;;;;9.43;1.58;;;13.90;99.90;;;;;;5029780;28;20250;-74
2023/10/05 07:33:25;;;;;;;4.18;1.98;;;14.30;99.90;;;;;;5029853;28;20170;-75
2023/10/05 07:35:51;;;;;;;12.90;2.13;;;14.00;99.90;;;;;;5031150;28;20180;-74
2023/10/05 07:38:17;;;;;;;10.57;1.90;;;14.10;99.90;;;;;;5031188;28;20767;-75
2023/10/05 07:40:43;;;;;;;9.25;1.35;;;;;;;;;;5031254;28;20249;-75
2023/10/05 07:43:09;;;;;;;11.90;2.17;;;14.20;99.90;;;;;;5030976;28;20264;-74
2023/10/05 07:45:35;;;;;;;10.80;1.75;;;14.30;99.90;;;;;;5030679;28;20359;-75
2023/10/05 07:48:01;;;;;;;10.98;1.80;;;14.30;99.90;;;;;;5030949;28;20245;-75
2023/10/05 07:50:27;;;;;;;8.10;1.70;;;14.30;99.90;;;;;;5030868;28;20172;-75
2023/10/05 07:52:55;;;;;;;9.95;1.90;;;14.30;99.90;;;;;;5030977;28;20252;-75
2023/10/05 07:55:21;;;;;;;13.25;1.60;;;14.40;99.90;;;;;;5030826;28;20165;-74
2023/10/05 07:57:47;;;;;;;10.75;1.55;;;;;;;;;;5030976;28;20537;-75
2023/10/05 08:00:15;;;;;;;10.20;1.77;;;14.60;99.90;;;;;;5030812;28;20173;-75
2023/10/05 08:02:41;;;;;;;12.85;1.77;;;14.60;99.90;;;;;;5030990;28;20192;-75
2023/10/05 08:05:08;;;;;;;7.93;1.70;;;;;;;;;;5030805;28;20641;-74
2023/10/05 08:07:34;;;;;;;6.57;1.77;;;14.50;99.90;;;;;;5030835;28;20271;-76
2023/10/05 08:10:00;;;;;;;13.65;2.00;;;14.80;99.90;;;;;;5030960;28;20559;-75
2023/10/05 08:12:28;;;;;;;6.88;2.22;;;14.80;99.90;;;;;;5030659;28;20177;-75
2023/10/05 08:14:54;;;;;;;6.28;1.40;;;15.20;99.90;;;;;;5030542;28;20229;-75
2023/10/05 08:17:21;;;;;;;7.85;1.77;;;15.10;99.90;;;;;;5030537;28;20225;-75
2023/10/05 08:19:46;;;;;;;8.57;1.63;;;15.20;99.90;;;;;;5030643;28;20332;-75
2023/10/05 08:22:12;;;;;;;9.60;2.30;;;;;;;;;;5030849;28;20651;-75
2023/10/05 08:24:38;;;;;;;8.52;1.60;;;;;;;;;;5034767;28;20718;-75
2023/10/05 08:27:04;;;;;;;13.25;2.03;;;15.60;99.90;;;;;;5034448;28;20742;-75
2023/10/05 08:29:29;;;;;;;8.32;1.42;;;15.70;99.90;;;;;;5034314;28;20273;-75
2023/10/05 08:31:56;;;;;;;12.73;1.67;;;;;;;;;;5034495;28;20227;-75
2023/10/05 08:34:22;;;;;;;13.23;2.08;;;16.10;99.90;;;;;;5034476;28;20169;-75
2023/10/05 08:36:54;;;;;;;10.02;1.58;;;16.10;99.90;;;;;;5034462;28;20260;-74
2023/10/05 08:39:26;;;;;;;7.05;1.23;;;16.30;99.90;;;;;;5034492;28;20170;-75
2023/10/05 08:42:02;;;;;;;10.93;1.70;;;16.30;99.90;;;;;;5034395;28;20640;-75
2023/10/05 08:44:28;;;;;;;19.52;1.73;;;16.30;99.90;;;;;;5034463;28;20178;-75
2023/10/05 08:46:58;;;;;;;11.98;1.67;;;16.20;99.90;;;;;;5034670;28;20534;-74
2023/10/05 08:49:24;;;;;;;8.55;1.75;;;16.00;99.90;;;;;;5034181;28;20188;-75
2023/10/05 08:51:51;;;;;;;7.25;1.65;;;16.20;99.90;;;;;;5034033;28;20240;-75
2023/10/05 08:54:21;;;;;;;13.00;2.08;;;16.50;99.90;;;;;;5034228;28;20255;-75
2023/10/05 08:56:48;;;;;;;10.52;1.77;;;16.60;99.90;;;;;;5034376;28;20177;-75
2023/10/05 08:59:14;;;;;;;5.95;1.45;;;16.50;99.90;;;;;;5033856;28;20178;-74
2023/10/05 09:01:45;;;;;;;4.85;1.63;;;16.40;99.90;;;;;;5034042;28;20325;-74
2023/10/05 09:06:49;;;;;;;5.28;1.58;;;16.70;99.90;;;;;;5033799;28;20249;-75
2023/10/05 09:09:35;;;;;;;5.35;1.30;;;16.70;99.90;;;;;;5036678;28;20170;-75
2023/10/05 09:12:17;;;;;;;10.65;1.38;;;16.80;99.90;;;;;;5033755;28;20232;-75
2023/10/05 09:14:43;;;;;;;8.55;1.38;;;16.90;99.90;;;;;;5033821;28;20181;-75
2023/10/05 09:17:09;;;;;;;8.45;1.70;;;17.20;99.90;;;;;;5033611;28;20259;-75
2023/10/05 09:19:37;;;;;;;10.18;1.45;;;17.40;99.90;;;;;;5032414;28;20170;-74
2023/10/05 09:22:14;;;;;;;8.27;1.35;;;16.80;99.90;;;;;;5033587;28;20170;-74
2023/10/05 09:24:50;;;;;;;6.45;1.30;;;16.70;99.90;;;;;;5033605;28;20250;-75
2023/10/05 09:27:17;;;;;;;4.28;1.38;;;16.70;99.90;;;;;;5032097;28;20213;-75
2023/10/05 09:29:44;;;;;;;7.63;1.20;;;16.70;99.90;;;;;;5033360;28;20274;-75
2023/10/05 09:32:36;;;;;;;4.20;1.30;;;16.90;99.90;;;;;;5032143;28;20174;-75
2023/10/05 09:35:03;;;;;;;6.38;1.55;;;16.70;99.90;;;;;;5032771;28;20170;-75
2023/10/05 09:37:33;;;;;;;5.55;1.35;;;16.80;99.90;;;;;;5033456;28;20174;-74
2023/10/05 09:40:00;;;;;;;9.50;1.45;;;16.70;99.90;;;;;;5035711;28;20177;-75
2023/10/05 09:42:26;;;;;;;5.43;1.33;;;16.50;99.90;;;;;;5048576;28;20177;-74
2023/10/05 09:44:57;;;;;;;7.38;1.27;;;16.60;99.90;;;;;;5050689;28;20213;-75
2023/10/05 09:47:33;;;;;;;6.97;1.50;;;16.80;99.90;;;;;;5033003;28;20217;-74
2023/10/05 09:50:01;;;;;;;5.85;1.42;;;16.50;99.90;;;;;;5032930;28;20178;-75
2023/10/05 09:52:46;;;;;;;6.50;1.45;;;17.20;99.90;;;;;;5031372;28;20652;-75
2023/10/05 09:55:21;;;;;;;5.13;1.38;;;16.80;99.90;;;;;;5032890;28;20180;-75
2023/10/05 09:57:51;;;;;;;5.85;1.60;;;16.80;99.90;;;;;;5040927;28;20179;-75
2023/10/05 10:00:30;;;;;;;6.00;1.60;;;16.80;99.90;;;;;;5052562;28;20174;-75
2023/10/05 10:03:03;;;;;;;10.63;1.75;;;17.00;99.90;;;;;;5052669;28;20169;-74
2023/10/05 10:05:51;;;;;;;5.47;1.70;;;17.10;99.90;;;;;;5052463;28;20165;-75
2023/10/05 10:08:30;;;;;;;9.65;1.90;;;17.30;99.90;;;;;;5052508;28;20694;-74
2023/10/05 10:11:02;;;;;;;10.70;1.63;;;17.20;99.90;;;;;;5052716;28;20636;-74
2023/10/05 10:13:37;;;;;;;5.35;1.40;;;17.10;99.90;;;;;;5052410;28;20181;-75
2023/10/05 10:16:22;;;;;;;7.97;1.73;;;17.30;99.90;;;;;;5051156;28;20203;-75
2023/10/05 10:19:04;;;;;;;5.90;1.85;;;17.00;99.90;;;;;;5052203;28;20578;-75
2023/10/05 10:21:53;;;;;;;8.48;1.50;;;17.10;99.90;;;;;;5052416;28;20161;-75
2023/10/05 10:24:19;;;;;;;7.25;1.40;;;17.70;99.90;;;;;;5052150;28;20687;-75
2023/10/05 10:26:53;;;;;;;4.78;1.30;;;17.70;99.90;;;;;;5052302;28;20308;-75
2023/10/05 10:29:22;;;;;;;7.18;1.83;;;18.00;99.90;;;;;;5052267;28;20173;-75
2023/10/05 10:32:19;;;;;;;5.55;1.50;;;17.80;99.90;;;;;;5052093;28;20177;-75
2023/10/05 10:34:52;;;;;;;7.68;1.65;;;17.70;99.90;;;;;;5052136;28;20196;-75
2023/10/05 10:37:39;;;;;;;11.45;1.60;;;17.80;99.90;;;;;;5052294;28;20173;-75
2023/10/05 10:42:53;;;;;;;7.95;1.27;;;17.80;99.90;;;;;;5052157;28;20650;-75
2023/10/05 10:45:29;;;;;;;4.35;1.25;;;17.60;8.90;;;;;;5051659;28;20281;-77
2023/10/05 10:47:56;;;;;;;7.88;1.35;;;17.60;99.90;;;;;;5051541;28;20200;-74
2023/10/05 10:50:23;;;;;;;9.35;1.70;;;17.50;1.00;;;;;;5051824;28;20208;-75
2023/10/05 10:52:50;;;;;;;6.78;1.63;;;17.90;60.60;;;;;;5051888;28;20183;-75
2023/10/05 10:55:17;;;;;;;10.80;1.70;;;17.70;1.00;;;;;;5050413;28;20177;-75
2023/10/05 10:57:45;;;;;;;6.18;1.67;;;17.90;1.00;;;;;;5051739;28;20165;-73
2023/10/05 11:02:56;;;;;;;7.63;1.60;;;18.50;99.90;;;;;;5051692;28;20538;-73
2023/10/05 11:05:35;;;;;;;8.68;2.00;;;18.70;1.00;;;;;;5051548;28;20202;-74
2023/10/05 11:08:01;;;;;;;3.55;1.27;;;;;;;;;;5051686;28;20190;-75
2023/10/05 11:10:30;;;;;;;9.07;1.75;;;18.90;99.90;;;;;;5051490;28;20632;-75
2023/10/05 11:13:18;;;;;;;11.20;1.77;;;18.80;1.00;;;;;;5051721;28;20169;-75
2023/10/05 11:15:58;;;;;;;8.82;1.70;;;19.10;1.00;;;;;;5050181;28;20184;-75
2023/10/05 11:18:34;;;;;;;7.47;2.03;;;19.20;99.90;;;;;;5050154;28;20604;-75
2023/10/05 11:21:13;;;;;;;7.03;1.67;;;19.60;1.00;;;;;;5051617;28;20311;-74
2023/10/05 11:23:56;;;;;;;5.88;1.60;;;18.90;99.90;;;;;;5051468;28;20173;-75
2023/10/05 11:26:35;;;;;;;5.05;1.42;;;18.60;1.00;;;;;;5051239;28;20204;-75
2023/10/05 11:29:07;;;;;;;8.68;2.03;;;18.60;99.90;;;;;;5051060;28;20179;-75
2023/10/05 11:31:34;;;;;;;6.50;1.77;;;18.90;1.00;;;;;;5051466;28;20247;-75
2023/10/05 11:34:09;;;;;;;6.13;1.80;;;17.70;99.90;;;;;;5051153;28;20248;-75
2023/10/05 11:36:39;;;;;;;10.02;2.10;;;17.70;99.90;;;;;;5051143;28;20176;-74
2023/10/05 11:39:20;;;;;;;13.90;2.10;;;17.60;1.00;;;;;;5050949;28;20164;-75
2023/10/05 11:41:46;;;;;;;7.80;1.67;;;17.60;99.90;;;;;;5051023;28;20177;-75
2023/10/05 11:44:23;;;;;;;6.85;1.75;;;17.60;99.90;;;;;;5051140;28;20256;-74
2023/10/05 11:46:57;;;;;;;5.18;1.52;;;17.40;1.00;;;;;;5051020;28;20303;-75
2023/10/05 11:49:33;;;;;;;5.95;1.33;;;17.50;1.00;;;;;;5050963;28;20165;-75
2023/10/05 11:52:00;;;;;;;9.48;2.13;;;17.70;47.70;;;;;;5051086;28;20642;-75
2023/10/05 11:54:31;;;;;;;4.53;1.25;;;17.60;52.10;;;;;;5051143;28;20181;-75
2023/10/05 11:56:58;;;;;;;12.18;1.80;;;17.70;9.30;;;;;;5049724;28;20178;-75
2023/10/05 11:59:31;;;;;;;5.72;1.65;;;17.60;1.00;;;;;;5050565;28;20168;-75
2023/10/05 12:01:57;;;;;;;8.48;1.67;;;17.80;1.00;;;;;;5051010;28;20177;-75
2023/10/05 12:04:29;;;;;;;8.73;1.40;;;17.50;1.00;;;;;;5050987;28;20220;-75
2023/10/05 12:07:00;;;;;;;12.30;1.92;;;17.70;30.40;;;;;;5050766;28;20205;-75
2023/10/05 12:09:34;;;;;;;4.90;1.45;;;17.90;99.90;;;;;;5050859;28;20216;-75
2023/10/05 12:12:03;;;;;;;5.90;1.70;;;17.90;99.90;;;;;;5050675;28;20180;-74
2023/10/05 12:14:29;;;;;;;7.70;1.50;;;18.30;93.20;;;;;;5050645;28;20236;-75
2023/10/05 12:16:56;;;;;;;7.75;1.67;;;18.20;1.00;;;;;;5050510;28;20203;-75
2023/10/05 12:19:27;;;;;;;15.40;1.95;;;18.30;1.00;;;;;;5050612;28;20185;-75
2023/10/05 12:21:55;;;;;;;5.47;1.73;;;18.60;99.90;;;;;;5050692;28;20177;-75
2023/10/05 12:24:21;;;;;;;6.40;1.90;;;18.50;16.60;;;;;;5050618;28;20161;-75
2023/10/05 12:26:47;;;;;;;8.65;1.63;;;18.50;99.90;;;;;;5050435;28;20205;-75
2023/10/05 12:29:13;;;;;;;9.05;1.60;;;18.70;99.90;;;;;;5049119;28;20185;-75
2023/10/05 12:31:51;;;;;;;6.55;1.73;;;18.90;18.40;;;;;;5050686;28;20228;-75
2023/10/05 12:34:23;;;;;;;7.35;1.85;;;18.70;99.90;;;;;;5044493;28;20173;-75
2023/10/05 12:36:49;;;;;;;6.80;1.52;;;18.80;75.40;;;;;;5043309;28;20224;-75
2023/10/05 12:39:20;;;;;;;5.78;1.73;;;19.10;1.00;;;;;;5050127;28;20223;-75
2023/10/05 12:41:46;;;;;;;7.28;1.77;;;19.40;99.90;;;;;;5030846;28;20178;-75
2023/10/05 12:44:15;;;;;;;8.82;1.63;;;19.70;1.00;;;;;;5030330;28;20633;-74
2023/10/05 12:46:45;;;;;;;9.05;1.92;;;19.70;1.00;;;;;;5030436;28;20213;-75
2023/10/05 12:49:17;;;;;;;5.93;1.75;;;19.70;1.00;;;;;;5030390;28;20182;-75
2023/10/05 12:51:45;;;;;;;6.03;1.60;;;19.30;1.00;;;;;;5032479;28;20166;-75
2023/10/05 12:54:28;;;;;;;13.57;2.38;;;19.70;1.00;;;;;;5050045;28;20165;-75
2023/10/05 12:56:54;;;;;;;7.50;1.98;;;;;;;;;;5050543;28;20184;-75
2023/10/05 12:59:20;;;;;;;9.02;1.17;;;19.80;99.90;;;;;;5050021;28;20169;-75
2023/10/05 13:01:47;;;;;;;4.93;1.50;;;19.80;99.90;;;;;;5050165;28;20166;-75
2023/10/05 13:04:16;;;;;;;11.55;1.88;;;21.70;99.90;;;;;;5049998;28;20211;-75
2023/10/05 13:06:44;;;;;;;9.13;1.58;;;21.20;1.00;;;;;;5050222;28;20266;-75
2023/10/05 13:09:18;;;;;;;6.35;1.50;;;21.80;1.00;;;;;;5050203;28;20690;-75
2023/10/05 13:11:45;;;;;;;10.15;1.67;;;22.20;1.00;;;;;;5053767;28;20582;-75
2023/10/05 13:14:14;;;;;;;5.78;1.58;;;;;;;;;;5053717;28;20170;-75
2023/10/05 13:16:40;;;;;;;6.70;1.60;;;23.40;1.00;;;;;;5053508;28;20208;-75
2023/10/05 13:19:06;;;;;;;4.90;1.63;;;23.50;94.70;;;;;;5052347;28;20177;-76
2023/10/05 13:21:35;;;;;;;6.45;1.48;;;23.30;1.00;;;;;;5052436;28;20177;-75
2023/10/05 13:24:01;;;;;;;8.95;1.90;;;;;;;;;;5053893;28;20165;-76
2023/10/05 13:26:28;;;;;;;4.13;1.20;;;23.20;1.00;;;;;;5053574;28;20215;-75
2023/10/05 13:28:59;;;;;;;7.18;2.00;;;;;;;;;;5055047;28;20188;-75
2023/10/05 13:31:25;;;;;;;5.57;1.60;;;22.00;1.00;;;;;;5063214;28;20195;-75
2023/10/05 13:33:54;;;;;;;4.90;1.40;;;20.80;99.90;;;;;;5053522;28;20170;-75